Airfield :
LOGIN :

Register | Disclaimer

   EN    FR    IT 

 










Legend :    VFR   Marginal VFR   IFR   Intensive IFR   Very Intensive IFR
Visi :
Ceiling :
>= 8 km
>= 3000ft
5 to 8 km
1000 to 3000 ft
1500m to 5 km
500 to 1000 ft
800 to 1500m
200 to 500 ft
< 800m
< 200 ft
Symbols :   Thunderstorms  Fog  Heavy snow  Heavy precipitations  Wind > 20 kt
SIGMETs :     Misc.  Thunderstorms  Icing  Turbulence  Mountain Waves  Volcanic Ashes






- Airport Elevation : 20 ft


EBFN - Koksijde

CURRENT METAR :
  • 061055Z AUTO 24022KT 9999 BKN042/// 15/04 Q0999 BLU

EXPIRED METARs :
  • 061025Z AUTO 24021KT 9999 BKN040/// 13/04 Q0999 BLU
  • 060955Z AUTO 24020KT 9999 FEW042/// 13/03 Q0999 BLU
  • 060925Z AUTO 24019G32KT 9999 SCT041/// 13/04 Q0999 BLU
  • 060855Z AUTO 25019KT 9999 FEW039/// 13/03 Q0999 BLU
  • 060825Z AUTO 25017KT 9999 FEW037/// 13/04 Q0999 BLU
  • 060755Z AUTO 26016KT 9999 FEW034/// 12/04 Q0999 BLU

TAF TAF EBFN
Valid from the 06 at 10:00 until the 06 at 19:00 UTC


060841Z 0610/0619 25017G28KT 9999 SCT040 SCT170
TEMPO 0611/0619 24020G35KT
TEMPO 0617/0619 4000 RA SHRA BKN018



MET'MAP, your aeronautical weather chart ! - Copyright ORBIFLY December 2007 - Disclaimer

ORBIFLY MET'MAP TEAM :

Programming & Development : Alexandra Zaïnal
Concept & original design : Baudouin d'Aumeries
Assistance for programming : Marc-Olivier Méhu
Technical & hardware support : Manuel Goepfert

Contact : metmap@orbifly.com




SOURCES & CREDITS :

   NOAA